Time;durP1;ratioP1;P1;durP2;ratioP2;P2;SDS_P1;SDS_P2;PMS_P1;PMS_P2;Temp;Humidity;BMP_temperature;BMP_pressure;BME280_temperature;BME280_humidity;BME280_pressure;Samples;Min_cycle;Max_cycle;Signal;HPM_P1;HPM_P2
2021/10/07 00:00:36;;;;;;;38.88;25.67;;;12.30;99.90;;;;;;4950361;28;20104;-85
2021/10/07 00:03:04;;;;;;;36.92;24.60;;;12.30;99.90;;;;;;4935136;28;20089;-86
2021/10/07 00:05:31;;;;;;;31.38;22.55;;;12.30;99.90;;;;;;4951592;28;20049;-86
2021/10/07 00:07:58;;;;;;;30.88;22.70;;;12.30;99.90;;;;;;4932530;28;20065;-86
2021/10/07 00:10:26;;;;;;;32.88;22.63;;;12.30;99.90;;;;;;4955023;28;20049;-86
2021/10/07 00:12:53;;;;;;;37.83;25.35;;;12.30;99.90;;;;;;4955828;28;20112;-86
2021/10/07 00:15:20;;;;;;;30.17;22.90;;;12.30;99.90;;;;;;4954525;28;20042;-86
2021/10/07 00:17:47;;;;;;;32.97;24.05;;;12.30;99.90;;;;;;4954956;28;20053;-86
2021/10/07 00:20:16;;;;;;;37.00;25.67;;;12.30;99.90;;;;;;4936295;28;20710;-86
2021/10/07 00:22:45;;;;;;;34.92;26.88;;;12.30;99.90;;;;;;4956430;28;20058;-86
2021/10/07 00:25:14;;;;;;;38.35;25.30;;;12.30;99.90;;;;;;4956840;28;20061;-86
2021/10/07 00:27:41;;;;;;;38.05;25.70;;;12.40;99.90;;;;;;4955975;28;20045;-86
2021/10/07 00:30:15;;;;;;;39.60;27.63;;;12.40;99.90;;;;;;4939822;28;20100;-86
2021/10/07 00:33:07;;;;;;;40.35;26.75;;;12.40;99.90;;;;;;4952628;28;20076;-86
2021/10/07 00:40:50;;;;;;;36.38;25.50;;;12.40;99.90;;;;;;4955842;28;20894;-86
2021/10/07 00:43:17;;;;;;;36.58;26.67;;;12.40;99.90;;;;;;4938516;28;20165;-86
2021/10/07 00:45:52;;;;;;;38.03;25.50;;;12.40;99.90;;;;;;4955153;28;20081;-87
2021/10/07 00:48:19;;;;;;;35.70;26.98;;;12.40;99.90;;;;;;4955397;28;20108;-87
2021/10/07 00:50:47;;;;;;;38.63;24.98;;;12.40;99.90;;;;;;4955501;28;20128;-86
2021/10/07 00:53:18;;;;;;;39.05;26.83;;;12.40;99.90;;;;;;4938932;28;20538;-86
2021/10/07 00:55:46;;;;;;;35.83;26.00;;;12.40;99.90;;;;;;4937338;28;20054;-85
2021/10/07 00:58:15;;;;;;;32.80;23.17;;;12.40;99.90;;;;;;4954124;28;20042;-86
2021/10/07 01:00:43;;;;;;;38.88;26.35;;;12.30;99.90;;;;;;4954244;28;20108;-86
2021/10/07 01:03:14;;;;;;;36.33;24.33;;;12.40;99.90;;;;;;4938410;28;20054;-86
2021/10/07 01:05:42;;;;;;;37.90;25.73;;;12.30;99.90;;;;;;4937030;28;20592;-86
2021/10/07 01:08:09;;;;;;;30.48;23.88;;;12.30;99.90;;;;;;4945256;28;20050;-86
2021/10/07 01:10:36;;;;;;;33.85;24.40;;;12.30;99.90;;;;;;4955248;28;20053;-87
2021/10/07 01:13:04;;;;;;;33.42;24.90;;;12.30;99.90;;;;;;4955972;28;20049;-87
2021/10/07 01:15:31;;;;;;;31.88;22.08;;;12.40;99.90;;;;;;4937359;28;20116;-86
2021/10/07 01:17:58;;;;;;;34.30;24.73;;;12.40;99.90;;;;;;4953468;28;20057;-85
2021/10/07 01:20:26;;;;;;;35.35;22.15;;;12.40;99.90;;;;;;4937679;28;20108;-85
2021/10/07 01:22:53;;;;;;;29.88;21.55;;;12.40;99.90;;;;;;4955335;28;20501;-85
2021/10/07 01:25:20;;;;;;;28.35;22.02;;;12.40;99.90;;;;;;4957106;28;20432;-85
2021/10/07 01:27:55;;;;;;;32.05;24.38;;;12.40;99.90;;;;;;4952767;28;20136;-86
2021/10/07 01:30:23;;;;;;;30.35;23.27;;;12.40;99.90;;;;;;4951457;28;20050;-86
2021/10/07 01:32:55;;;;;;;31.58;23.08;;;12.40;99.90;;;;;;4938010;28;20061;-86
2021/10/07 01:35:23;;;;;;;27.58;21.55;;;12.40;99.90;;;;;;4949532;28;20041;-86
2021/10/07 01:37:51;;;;;;;25.92;19.33;;;12.40;99.90;;;;;;4952504;28;20486;-86
2021/10/07 01:40:18;;;;;;;29.08;21.63;;;12.40;99.90;;;;;;4935351;28;20041;-86
2021/10/07 01:42:45;;;;;;;26.48;21.70;;;12.40;99.90;;;;;;4953507;28;20104;-86
2021/10/07 01:45:17;;;;;;;29.10;21.48;;;12.40;99.90;;;;;;4951900;28;20054;-85
2021/10/07 01:47:44;;;;;;;24.75;20.55;;;12.50;99.90;;;;;;4954484;28;20054;-86
2021/10/07 01:50:13;;;;;;;27.70;21.15;;;12.40;99.90;;;;;;4952285;28;20064;-86
2021/10/07 01:52:41;;;;;;;29.15;20.92;;;12.50;99.90;;;;;;4938693;28;20050;-86
2021/10/07 01:55:10;;;;;;;26.88;19.60;;;12.40;99.90;;;;;;4954921;28;20050;-86
2021/10/07 01:57:38;;;;;;;26.10;20.15;;;12.50;99.90;;;;;;4953654;28;20076;-85
2021/10/07 02:00:08;;;;;;;25.15;20.27;;;12.50;99.90;;;;;;4931815;28;20119;-86
2021/10/07 02:02:38;;;;;;;25.58;20.80;;;12.40;99.90;;;;;;4937371;28;20077;-86
2021/10/07 02:05:07;;;;;;;23.73;18.63;;;12.40;99.90;;;;;;4954945;28;20034;-84
2021/10/07 02:07:34;;;;;;;25.17;19.70;;;12.50;99.90;;;;;;4955615;28;20084;-83
2021/10/07 02:10:04;;;;;;;22.83;18.20;;;12.50;99.90;;;;;;4946903;28;20640;-83
2021/10/07 02:12:31;;;;;;;23.98;18.25;;;12.50;99.90;;;;;;4938105;28;20053;-85
2021/10/07 02:14:58;;;;;;;24.27;18.25;;;12.50;99.90;;;;;;4936024;28;20180;-84
2021/10/07 02:17:25;;;;;;;19.75;17.45;;;12.50;99.90;;;;;;4954503;28;20511;-84
2021/10/07 02:19:52;;;;;;;22.85;17.33;;;12.50;99.90;;;;;;4954269;28;20703;-85
2021/10/07 02:22:19;;;;;;;20.85;16.73;;;12.40;99.90;;;;;;4956075;28;20069;-85
2021/10/07 02:24:46;;;;;;;18.45;16.67;;;12.40;99.90;;;;;;4952655;28;20519;-83
2021/10/07 02:27:15;;;;;;;19.70;16.20;;;12.40;99.90;;;;;;4953630;28;20404;-83
2021/10/07 02:29:43;;;;;;;21.48;19.02;;;12.40;99.90;;;;;;4951590;28;22066;-83
2021/10/07 02:32:10;;;;;;;20.88;17.73;;;12.40;99.90;;;;;;4925609;28;20054;-83
2021/10/07 02:34:37;;;;;;;21.25;17.40;;;12.40;99.90;;;;;;4928126;28;22540;-83
2021/10/07 02:37:04;;;;;;;21.05;18.40;;;12.40;99.90;;;;;;4930136;28;20959;-83
2021/10/07 02:39:31;;;;;;;21.40;17.23;;;12.40;99.90;;;;;;4948560;28;20058;-84
2021/10/07 02:41:58;;;;;;;23.60;19.73;;;12.30;99.90;;;;;;4944875;28;20046;-83
2021/10/07 02:44:25;;;;;;;23.48;18.20;;;12.30;99.90;;;;;;4946693;28;20152;-83
2021/10/07 02:46:52;;;;;;;21.65;18.17;;;12.30;99.90;;;;;;4945624;28;20056;-83
2021/10/07 02:49:19;;;;;;;26.05;20.33;;;12.30;99.90;;;;;;4952811;28;20077;-83
2021/10/07 02:51:46;;;;;;;25.00;18.48;;;12.30;99.90;;;;;;4951787;28;20046;-83
2021/10/07 02:54:13;;;;;;;25.48;20.02;;;12.30;99.90;;;;;;4950738;28;20046;-83
2021/10/07 02:56:40;;;;;;;26.65;19.00;;;12.30;99.90;;;;;;4933929;28;20153;-83
2021/10/07 02:59:07;;;;;;;26.83;20.65;;;12.20;99.90;;;;;;4951200;28;20749;-83
2021/10/07 03:01:34;;;;;;;22.05;17.55;;;12.20;99.90;;;;;;4951949;28;20054;-82
2021/10/07 03:04:04;;;;;;;24.47;20.43;;;12.20;99.90;;;;;;4934133;28;20092;-83
2021/10/07 03:06:31;;;;;;;23.45;19.52;;;12.20;99.90;;;;;;4953943;28;20377;-83
2021/10/07 03:08:58;;;;;;;23.85;19.33;;;12.20;99.90;;;;;;4951406;28;20104;-83
2021/10/07 03:11:25;;;;;;;24.80;18.40;;;12.20;99.90;;;;;;4954562;28;20058;-83
2021/10/07 03:13:52;;;;;;;26.77;20.23;;;12.20;99.90;;;;;;4935047;28;20690;-83
2021/10/07 03:16:19;;;;;;;25.83;19.75;;;12.20;99.90;;;;;;4954005;28;20050;-83
2021/10/07 03:18:46;;;;;;;22.42;17.48;;;12.10;99.90;;;;;;4954236;28;20161;-83
2021/10/07 03:21:16;;;;;;;25.98;19.15;;;12.10;99.90;;;;;;4955790;28;20499;-83
2021/10/07 03:23:43;;;;;;;23.38;20.00;;;12.10;99.90;;;;;;4951094;28;20100;-83
2021/10/07 03:26:11;;;;;;;21.23;18.35;;;12.10;99.90;;;;;;4952945;28;20686;-84
2021/10/07 03:28:38;;;;;;;34.75;20.23;;;12.10;99.90;;;;;;4936712;28;20056;-83
2021/10/07 03:31:05;;;;;;;22.40;19.33;;;12.10;99.90;;;;;;4953008;28;20092;-83
2021/10/07 03:33:32;;;;;;;22.05;19.15;;;12.10;99.90;;;;;;4952992;28;20136;-83
2021/10/07 03:35:59;;;;;;;23.50;18.23;;;12.10;99.90;;;;;;4931272;28;20111;-83
2021/10/07 03:38:29;;;;;;;24.25;18.42;;;12.10;99.90;;;;;;4957418;28;20718;-83
2021/10/07 03:40:57;;;;;;;21.58;18.40;;;12.10;99.90;;;;;;4956927;28;20061;-83
2021/10/07 03:43:24;;;;;;;24.85;19.65;;;12.10;99.90;;;;;;4955712;28;20053;-82
2021/10/07 03:45:51;;;;;;;26.60;18.33;;;12.10;99.90;;;;;;4949893;28;20081;-83
2021/10/07 03:48:18;;;;;;;26.00;19.55;;;12.10;99.90;;;;;;4948660;28;20049;-83
2021/10/07 03:50:45;;;;;;;26.08;19.42;;;12.10;99.90;;;;;;4928076;28;20116;-83
2021/10/07 03:53:13;;;;;;;21.88;18.42;;;12.00;99.90;;;;;;4956478;28;20084;-83
2021/10/07 03:55:40;;;;;;;28.77;19.65;;;12.00;99.90;;;;;;4955489;28;20053;-83
2021/10/07 03:58:07;;;;;;;25.77;18.67;;;12.00;99.90;;;;;;4933321;28;20061;-83
2021/10/07 04:00:34;;;;;;;24.58;18.48;;;12.00;99.90;;;;;;4955135;28;20045;-83
2021/10/07 04:03:03;;;;;;;22.33;19.85;;;11.90;99.90;;;;;;4955706;28;20499;-83
2021/10/07 04:05:31;;;;;;;20.70;17.77;;;11.90;99.90;;;;;;4955914;28;20132;-83
2021/10/07 04:07:58;;;;;;;24.13;18.48;;;11.80;99.90;;;;;;4950753;28;20066;-83
2021/10/07 04:10:25;;;;;;;20.60;18.33;;;11.80;99.90;;;;;;4948156;28;20141;-83
2021/10/07 04:12:52;;;;;;;23.52;16.77;;;11.80;99.90;;;;;;4952581;28;20046;-84
2021/10/07 04:15:19;;;;;;;22.17;17.75;;;11.70;99.90;;;;;;4957294;28;20057;-84
2021/10/07 04:17:47;;;;;;;22.10;18.63;;;11.70;99.90;;;;;;4955459;28;20049;-83
2021/10/07 04:20:14;;;;;;;30.42;21.70;;;11.60;99.90;;;;;;4957435;28;20046;-83
2021/10/07 04:22:41;;;;;;;22.58;17.95;;;11.60;99.90;;;;;;4954702;28;20264;-83
2021/10/07 04:25:08;;;;;;;22.40;18.70;;;11.60;99.90;;;;;;4939486;28;20060;-84
2021/10/07 04:27:35;;;;;;;23.45;19.48;;;11.50;99.90;;;;;;4951779;28;20088;-84
2021/10/07 04:30:06;;;;;;;22.17;17.77;;;11.50;99.90;;;;;;4952615;28;20142;-84
2021/10/07 04:32:33;;;;;;;20.95;18.65;;;11.40;99.90;;;;;;4951698;28;20057;-84
2021/10/07 04:35:00;;;;;;;23.92;19.83;;;11.40;99.90;;;;;;4953409;28;20145;-84
2021/10/07 04:37:28;;;;;;;22.90;18.70;;;11.40;99.90;;;;;;4954762;28;20108;-84
2021/10/07 04:39:55;;;;;;;22.52;16.75;;;11.30;99.90;;;;;;4947053;28;20624;-84
2021/10/07 04:42:22;;;;;;;29.20;17.58;;;11.30;99.90;;;;;;4954390;28;20105;-84
2021/10/07 04:44:49;;;;;;;21.15;18.48;;;11.20;99.90;;;;;;4949978;28;20120;-84
2021/10/07 04:47:16;;;;;;;19.70;16.75;;;11.20;99.90;;;;;;4955012;28;20057;-84
2021/10/07 04:49:43;;;;;;;24.58;18.05;;;11.20;99.90;;;;;;4954294;28;20097;-83
2021/10/07 04:52:10;;;;;;;17.35;15.13;;;11.20;99.90;;;;;;4921921;28;20201;-83
2021/10/07 04:54:37;;;;;;;20.55;18.17;;;11.10;99.90;;;;;;4955150;28;20046;-83
2021/10/07 04:57:04;;;;;;;22.88;18.85;;;11.10;99.90;;;;;;4919050;28;20061;-83
2021/10/07 04:59:31;;;;;;;22.52;18.23;;;11.10;99.90;;;;;;4939739;28;20164;-86
2021/10/07 05:01:58;;;;;;;24.20;19.48;;;11.00;99.90;;;;;;4952168;28;20104;-86
2021/10/07 05:04:25;;;;;;;22.70;16.83;;;11.00;99.90;;;;;;4949268;28;20629;-86
2021/10/07 05:06:52;;;;;;;23.75;17.17;;;11.00;99.90;;;;;;4954493;28;20053;-86
2021/10/07 05:09:19;;;;;;;22.83;18.00;;;10.90;99.90;;;;;;4938777;28;20060;-85
2021/10/07 05:11:46;;;;;;;25.05;18.80;;;10.90;99.90;;;;;;4938300;28;20064;-85
2021/10/07 05:14:13;;;;;;;27.70;22.17;;;10.90;99.90;;;;;;4955222;28;20120;-85
2021/10/07 05:16:40;;;;;;;24.13;18.88;;;11.00;99.90;;;;;;4954985;28;20053;-85
2021/10/07 05:19:07;;;;;;;20.98;18.20;;;11.00;99.90;;;;;;4954311;28;20054;-85
2021/10/07 05:21:34;;;;;;;29.17;21.77;;;11.00;99.90;;;;;;4954038;28;20050;-86
2021/10/07 05:24:01;;;;;;;24.52;19.15;;;11.10;99.90;;;;;;4952725;28;20054;-86
2021/10/07 05:26:28;;;;;;;25.42;19.30;;;11.10;99.90;;;;;;4936711;28;20057;-86
2021/10/07 05:28:55;;;;;;;25.55;20.08;;;11.10;99.90;;;;;;4955605;28;20040;-85
2021/10/07 05:31:22;;;;;;;28.35;21.67;;;11.20;99.90;;;;;;4955210;28;20136;-85
2021/10/07 05:33:49;;;;;;;25.15;19.63;;;11.20;99.90;;;;;;4953923;28;20690;-85
2021/10/07 05:36:17;;;;;;;28.17;19.45;;;11.20;99.90;;;;;;4950922;28;20490;-85
2021/10/07 05:38:44;;;;;;;26.77;21.27;;;11.20;99.90;;;;;;4949551;28;20049;-85
2021/10/07 05:41:11;;;;;;;24.27;18.58;;;11.20;99.90;;;;;;4950874;28;20045;-85
2021/10/07 05:43:38;;;;;;;25.30;19.77;;;11.30;99.90;;;;;;4935616;28;20116;-85
2021/10/07 05:46:05;;;;;;;21.23;17.75;;;11.30;99.90;;;;;;4949664;28;20057;-85
2021/10/07 05:48:33;;;;;;;26.75;19.67;;;11.30;99.90;;;;;;4954892;28;20054;-86
2021/10/07 05:51:00;;;;;;;32.17;19.60;;;11.30;99.90;;;;;;4953028;28;20740;-87
2021/10/07 05:53:27;;;;;;;22.20;18.92;;;11.30;99.90;;;;;;4944096;28;20045;-86
2021/10/07 05:55:55;;;;;;;35.50;20.35;;;11.40;99.90;;;;;;4933354;28;20049;-85
2021/10/07 05:58:22;;;;;;;22.20;17.65;;;11.40;99.90;;;;;;4950685;28;20077;-85
2021/10/07 06:00:48;;;;;;;25.73;20.33;;;11.40;99.90;;;;;;4954131;28;20046;-86
2021/10/07 06:03:15;;;;;;;21.88;16.45;;;11.30;99.90;;;;;;4955657;28;20054;-86
2021/10/07 06:05:44;;;;;;;23.50;18.02;;;11.40;99.90;;;;;;4953875;28;20711;-86
2021/10/07 06:08:11;;;;;;;20.40;16.10;;;11.40;99.90;;;;;;4948201;28;20140;-85
2021/10/07 06:10:38;;;;;;;20.90;18.27;;;11.30;99.90;;;;;;4947555;28;20467;-85
2021/10/07 06:13:05;;;;;;;22.42;18.63;;;11.40;99.90;;;;;;4932872;28;20056;-85
2021/10/07 06:15:32;;;;;;;19.15;17.13;;;11.40;99.90;;;;;;4954378;28;20567;-86
2021/10/07 06:18:00;;;;;;;19.60;16.17;;;11.40;99.90;;;;;;4936213;28;20455;-86
2021/10/07 06:22:56;;;;;;;21.65;17.65;;;11.40;99.90;;;;;;4955581;28;20061;-85
2021/10/07 06:25:24;;;;;;;23.75;18.23;;;11.40;99.90;;;;;;4954631;28;20054;-86
2021/10/07 06:27:52;;;;;;;25.70;19.13;;;11.50;99.90;;;;;;4953327;28;20050;-86
2021/10/07 06:30:20;;;;;;;24.63;18.15;;;11.50;99.90;;;;;;4956370;28;20418;-86
2021/10/07 06:32:49;;;;;;;22.13;18.75;;;11.50;99.90;;;;;;4955714;28;20112;-86
2021/10/07 06:35:16;;;;;;;24.23;18.60;;;11.50;99.90;;;;;;4963812;28;20172;-86
2021/10/07 06:37:45;;;;;;;20.52;16.75;;;11.50;99.90;;;;;;4951231;28;20054;-86
2021/10/07 06:40:12;;;;;;;23.10;16.90;;;11.50;99.90;;;;;;4933880;28;20126;-86
2021/10/07 06:42:39;;;;;;;20.20;16.05;;;11.50;99.90;;;;;;4934866;28;20057;-87
2021/10/07 06:45:07;;;;;;;20.13;16.83;;;11.50;99.90;;;;;;4931654;28;20134;-87
2021/10/07 06:47:35;;;;;;;20.70;16.98;;;11.50;99.90;;;;;;4934628;28;20049;-87
2021/10/07 06:50:05;;;;;;;27.90;16.85;;;11.50;99.90;;;;;;4934535;28;20134;-87
2021/10/07 06:52:32;;;;;;;20.42;17.45;;;11.50;99.90;;;;;;4935017;28;20093;-86
2021/10/07 06:55:00;;;;;;;23.38;18.42;;;11.50;99.90;;;;;;4936581;28;20137;-87
2021/10/07 06:57:27;;;;;;;23.40;19.33;;;11.50;99.90;;;;;;4929670;28;20097;-87
2021/10/07 06:59:54;;;;;;;22.52;19.00;;;11.50;99.90;;;;;;4927551;28;20104;-86
2021/10/07 07:02:21;;;;;;;19.60;17.23;;;11.50;99.90;;;;;;4931421;28;20054;-86
2021/10/07 07:04:48;;;;;;;23.08;18.42;;;11.50;99.90;;;;;;4936949;28;20046;-86
2021/10/07 07:07:19;;;;;;;22.42;19.60;;;11.50;99.90;;;;;;4936362;28;20042;-85
2021/10/07 07:09:46;;;;;;;26.45;20.33;;;11.50;99.90;;;;;;4928726;28;20117;-86
2021/10/07 07:12:33;;;;;;;22.17;18.70;;;11.50;99.90;;;;;;4914369;28;20204;-86
2021/10/07 07:15:00;;;;;;;26.00;19.08;;;11.50;99.90;;;;;;4936085;28;20054;-86
2021/10/07 07:17:27;;;;;;;26.88;19.67;;;11.60;99.90;;;;;;4935101;28;20212;-85
2021/10/07 07:19:54;;;;;;;22.85;17.65;;;11.60;99.90;;;;;;4932100;28;20064;-86
2021/10/07 07:22:21;;;;;;;24.30;20.88;;;11.60;99.90;;;;;;4933833;28;20105;-86
2021/10/07 07:24:47;;;;;;;26.05;19.20;;;11.70;99.90;;;;;;4933717;28;20057;-86
2021/10/07 07:27:16;;;;;;;21.77;18.88;;;11.70;99.90;;;;;;4929146;28;20054;-86
2021/10/07 07:29:43;;;;;;;22.65;17.45;;;11.60;99.90;;;;;;4907968;28;20105;-86
2021/10/07 07:32:28;;;;;;;20.60;15.57;;;11.60;99.90;;;;;;4899189;28;20054;-86
2021/10/07 07:34:55;;;;;;;23.77;16.98;;;11.70;99.90;;;;;;4931579;28;20061;-86
2021/10/07 07:37:22;;;;;;;17.90;15.75;;;11.70;99.90;;;;;;4936355;28;20058;-86
2021/10/07 07:39:49;;;;;;;19.23;16.33;;;11.70;99.90;;;;;;4927848;28;20400;-86
2021/10/07 07:42:16;;;;;;;21.77;17.48;;;11.70;99.90;;;;;;4951629;28;20100;-85
2021/10/07 07:44:43;;;;;;;20.35;17.60;;;11.70;99.90;;;;;;4953720;28;20716;-85
2021/10/07 07:47:10;;;;;;;20.38;17.00;;;11.70;99.90;;;;;;4921496;28;20046;-86
2021/10/07 07:49:38;;;;;;;23.27;19.13;;;11.70;99.90;;;;;;4952518;28;20646;-86
2021/10/07 07:52:07;;;;;;;19.73;17.20;;;11.70;99.90;;;;;;4943924;28;20794;-86
2021/10/07 07:54:34;;;;;;;22.75;18.98;;;11.80;99.90;;;;;;4920014;28;20483;-86
2021/10/07 07:57:01;;;;;;;18.10;15.68;;;11.80;99.90;;;;;;4954079;28;20515;-86
2021/10/07 07:59:28;;;;;;;15.32;13.75;;;11.90;99.90;;;;;;4933715;28;20042;-86
2021/10/07 08:01:56;;;;;;;21.13;16.75;;;11.80;99.90;;;;;;4955109;28;20045;-85
2021/10/07 08:04:23;;;;;;;17.35;15.48;;;11.90;99.90;;;;;;4952250;28;20086;-86
2021/10/07 08:06:50;;;;;;;20.67;18.13;;;12.00;99.90;;;;;;4953906;28;20549;-86
2021/10/07 08:09:17;;;;;;;22.35;16.95;;;12.10;99.90;;;;;;4936454;28;20061;-85
2021/10/07 08:11:44;;;;;;;16.08;14.05;;;12.10;99.90;;;;;;4959586;28;20108;-85
2021/10/07 08:14:11;;;;;;;19.30;16.55;;;12.10;99.90;;;;;;4955266;28;20901;-85
2021/10/07 08:16:38;;;;;;;16.70;13.93;;;12.20;99.90;;;;;;4956415;28;20068;-84
2021/10/07 08:19:05;;;;;;;16.83;14.05;;;12.20;99.90;;;;;;4953041;28;20042;-85
2021/10/07 08:21:32;;;;;;;17.05;13.07;;;12.30;99.90;;;;;;4954270;28;20140;-85
2021/10/07 08:24:05;;;;;;;16.35;14.30;;;12.30;99.90;;;;;;4952934;28;20050;-85
2021/10/07 08:26:32;;;;;;;17.63;15.10;;;12.40;99.90;;;;;;4953089;28;20576;-85
2021/10/07 08:28:59;;;;;;;15.48;13.60;;;12.50;99.90;;;;;;4952481;28;20054;-85
2021/10/07 08:31:27;;;;;;;13.85;12.13;;;12.60;99.90;;;;;;4953269;28;20052;-84
2021/10/07 08:33:54;;;;;;;15.43;13.20;;;12.70;99.90;;;;;;4949265;28;20112;-85
2021/10/07 08:36:21;;;;;;;15.18;13.23;;;12.70;99.90;;;;;;4955446;28;20057;-85
2021/10/07 08:38:48;;;;;;;14.82;12.43;;;12.60;99.90;;;;;;4955957;28;20050;-85
2021/10/07 08:41:15;;;;;;;14.48;11.30;;;12.60;99.90;;;;;;4956044;28;20677;-87
2021/10/07 08:43:47;;;;;;;14.95;11.70;;;12.60;99.90;;;;;;4951670;28;20235;-86
2021/10/07 08:46:19;;;;;;;13.95;11.95;;;12.60;99.90;;;;;;4935898;28;20046;-86
2021/10/07 08:48:46;;;;;;;16.33;10.82;;;12.60;99.90;;;;;;4938401;28;20515;-86
2021/10/07 08:51:14;;;;;;;17.38;11.20;;;12.60;99.90;;;;;;4920147;28;20073;-86
2021/10/07 08:53:41;;;;;;;12.75;11.45;;;12.60;99.90;;;;;;4905349;28;20470;-86
2021/10/07 08:56:08;;;;;;;13.82;12.23;;;12.60;99.90;;;;;;4936025;28;20123;-86
2021/10/07 08:58:35;;;;;;;12.82;11.52;;;12.60;99.90;;;;;;4931439;28;20049;-86
2021/10/07 09:01:05;;;;;;;14.55;12.95;;;12.60;99.90;;;;;;4937166;28;20148;-86
2021/10/07 09:03:40;;;;;;;15.35;11.80;;;12.60;99.90;;;;;;4935281;28;20119;-86
2021/10/07 09:06:08;;;;;;;20.02;10.82;;;12.70;99.90;;;;;;4906897;28;20508;-86
2021/10/07 09:09:01;;;;;;;13.23;11.63;;;12.70;99.90;;;;;;4912537;28;21556;-86
2021/10/07 09:11:30;;;;;;;12.57;10.52;;;12.70;99.90;;;;;;4915163;28;20042;-87
2021/10/07 09:14:07;;;;;;;17.55;12.18;;;12.70;99.90;;;;;;4917318;28;20061;-87
2021/10/07 09:16:49;;;;;;;16.17;13.07;;;12.80;99.90;;;;;;4936764;28;20057;-87
2021/10/07 09:19:19;;;;;;;14.50;11.52;;;12.80;99.90;;;;;;4929028;28;20053;-87
2021/10/07 09:21:49;;;;;;;11.68;10.60;;;12.90;99.90;;;;;;4928350;28;20392;-86
2021/10/07 09:24:28;;;;;;;12.75;10.98;;;13.00;99.90;;;;;;4933705;28;20932;-86
2021/10/07 09:27:07;;;;;;;15.30;10.65;;;13.00;99.90;;;;;;4934736;28;20133;-85
2021/10/07 09:29:36;;;;;;;12.63;10.48;;;13.00;99.90;;;;;;4914217;28;20423;-87
2021/10/07 09:32:05;;;;;;;14.55;11.48;;;13.00;99.90;;;;;;4915244;28;20522;-87
2021/10/07 09:34:47;;;;;;;14.15;11.73;;;13.00;99.90;;;;;;4892154;28;20111;-86
2021/10/07 09:37:16;;;;;;;10.80;9.40;;;13.10;99.90;;;;;;4897556;28;20057;-86
2021/10/07 09:39:48;;;;;;;11.75;10.55;;;13.20;99.90;;;;;;4897694;28;20090;-86
2021/10/07 09:42:17;;;;;;;11.90;10.70;;;13.20;99.90;;;;;;4913974;28;20069;-86
2021/10/07 09:44:58;;;;;;;11.63;10.38;;;13.20;99.90;;;;;;4916067;28;20447;-86
2021/10/07 09:47:32;;;;;;;;;;;13.10;99.90;;;;;;4909314;28;20057;-87
2021/10/07 09:50:10;;;;;;;11.05;9.00;;;13.10;99.90;;;;;;4899411;28;19925;-87
2021/10/07 09:52:39;;;;;;;12.13;9.35;;;13.00;99.90;;;;;;4927985;28;20135;-87
2021/10/07 09:55:24;;;;;;;11.70;9.38;;;13.00;99.90;;;;;;4913019;28;20054;-87
2021/10/07 09:57:52;;;;;;;10.40;9.20;;;12.80;99.90;;;;;;4908409;28;20107;-86
2021/10/07 10:00:20;;;;;;;10.60;9.38;;;12.60;99.90;;;;;;4914126;28;20089;-86
2021/10/07 10:02:48;;;;;;;9.55;8.55;;;12.50;99.90;;;;;;4921674;28;20053;-85
2021/10/07 10:05:15;;;;;;;10.18;9.15;;;12.60;99.90;;;;;;4948568;28;20054;-85
2021/10/07 10:07:43;;;;;;;10.18;9.18;;;12.50;99.90;;;;;;4987481;28;20103;-85
2021/10/07 10:10:12;;;;;;;10.57;9.02;;;12.50;99.90;;;;;;4984160;28;20046;-85
2021/10/07 10:12:40;;;;;;;26.05;10.90;;;12.50;99.90;;;;;;5004995;28;20042;-86
2021/10/07 10:15:10;;;;;;;11.60;8.90;;;12.60;99.90;;;;;;4985963;28;20064;-86
2021/10/07 10:17:37;;;;;;;10.52;9.05;;;12.70;99.90;;;;;;5006545;28;20061;-86
2021/10/07 10:20:18;;;;;;;12.52;10.48;;;12.70;99.90;;;;;;5005980;28;20095;-86
2021/10/07 10:23:10;;;;;;;10.20;9.10;;;12.80;99.90;;;;;;5002859;28;20048;-87
2021/10/07 10:25:59;;;;;;;9.75;8.75;;;12.90;99.90;;;;;;5004518;28;20391;-86
2021/10/07 10:28:30;;;;;;;11.15;8.60;;;12.90;99.90;;;;;;5005490;28;20038;-85
2021/10/07 10:31:12;;;;;;;7.90;7.10;;;12.90;99.90;;;;;;5007516;28;20431;-87
2021/10/07 10:33:43;;;;;;;7.72;6.45;;;13.10;99.90;;;;;;5005892;28;20534;-85
2021/10/07 10:36:27;;;;;;;8.27;7.20;;;13.20;99.90;;;;;;5001253;28;20049;-86
2021/10/07 10:39:14;;;;;;;6.38;5.78;;;13.30;99.90;;;;;;5000503;28;20054;-86
2021/10/07 10:42:00;;;;;;;8.50;6.72;;;13.30;99.90;;;;;;5003782;28;20045;-86
2021/10/07 10:44:27;;;;;;;7.63;6.85;;;13.30;99.90;;;;;;5004605;28;20517;-87
2021/10/07 10:47:06;;;;;;;8.45;6.72;;;13.50;99.90;;;;;;5005798;28;20042;-88
2021/10/07 10:52:22;;;;;;;7.63;6.88;;;13.60;99.90;;;;;;4985963;28;20046;-88
2021/10/07 10:54:58;;;;;;;8.13;6.25;;;13.80;99.90;;;;;;5001396;28;20050;-87
2021/10/07 10:57:33;;;;;;;6.85;5.45;;;13.90;99.90;;;;;;4987776;28;20089;-87
2021/10/07 11:00:18;;;;;;;8.05;7.35;;;13.90;99.90;;;;;;5000514;28;20038;-87
2021/10/07 11:02:46;;;;;;;7.20;5.55;;;14.00;99.90;;;;;;5005291;28;20042;-87
2021/10/07 11:05:28;;;;;;;6.65;5.35;;;14.10;99.90;;;;;;4988825;28;20100;-87
2021/10/07 11:08:16;;;;;;;6.38;5.25;;;14.20;99.90;;;;;;5002905;28;20053;-87
2021/10/07 11:11:04;;;;;;;5.80;5.25;;;14.00;99.90;;;;;;5000835;28;20126;-88
2021/10/07 11:13:35;;;;;;;6.93;5.43;;;13.90;99.90;;;;;;4982360;28;20046;-88
2021/10/07 11:16:05;;;;;;;6.97;6.28;;;13.90;99.90;;;;;;4985470;28;20085;-88
2021/10/07 11:18:35;;;;;;;5.93;4.85;;;13.90;99.90;;;;;;5005165;28;20115;-87
2021/10/07 11:21:17;;;;;;;6.13;5.28;;;13.80;99.90;;;;;;5000309;28;20507;-86
2021/10/07 11:23:46;;;;;;;7.65;5.85;;;13.80;99.90;;;;;;5004734;28;20066;-86
2021/10/07 11:26:14;;;;;;;7.63;5.13;;;13.80;99.90;;;;;;4992876;28;20125;-87
2021/10/07 11:29:00;;;;;;;6.32;5.30;;;13.90;99.90;;;;;;4161616;28;10002005;-86
2021/10/07 11:31:27;;;;;;;6.10;5.50;;;14.00;99.90;;;;;;1717799;28;10002199;-87
2021/10/07 11:33:58;;;;;;;8.93;6.28;;;13.90;99.90;;;;;;4998182;28;20047;-87
2021/10/07 11:36:28;;;;;;;6.07;5.43;;;14.00;99.90;;;;;;4978095;28;20050;-86
2021/10/07 11:38:56;;;;;;;8.23;6.60;;;14.00;99.90;;;;;;5000615;28;20038;-87
2021/10/07 11:41:30;;;;;;;17.67;6.00;;;14.20;99.90;;;;;;5005344;28;20057;-86
2021/10/07 11:43:58;;;;;;;5.82;5.32;;;14.40;99.90;;;;;;5007229;28;20060;-86
2021/10/07 11:46:26;;;;;;;8.07;7.18;;;14.50;99.90;;;;;;5008980;28;20053;-87
2021/10/07 11:48:55;;;;;;;7.40;6.80;;;14.40;99.90;;;;;;4990521;28;20062;-86
2021/10/07 11:51:26;;;;;;;6.95;6.25;;;14.50;99.90;;;;;;5004762;28;20497;-87
2021/10/07 11:53:54;;;;;;;6.57;5.78;;;14.60;99.90;;;;;;5008279;28;20057;-87
2021/10/07 11:56:26;;;;;;;8.18;6.88;;;14.60;99.90;;;;;;5014735;28;20046;-87
2021/10/07 11:59:00;;;;;;;6.07;5.57;;;14.70;99.90;;;;;;5008151;28;20061;-86
2021/10/07 12:01:34;;;;;;;9.05;5.68;;;14.60;99.90;;;;;;5008337;28;20076;-87
2021/10/07 12:04:04;;;;;;;8.48;6.57;;;14.30;99.90;;;;;;5007069;28;20060;-87
2021/10/07 12:06:33;;;;;;;7.95;7.15;;;14.30;99.90;;;;;;5011423;28;20042;-87
2021/10/07 12:09:00;;;;;;;7.07;6.40;;;14.10;99.90;;;;;;5003068;28;20116;-86
2021/10/07 12:11:31;;;;;;;11.38;8.40;;;13.90;99.90;;;;;;5006118;28;20100;-86
2021/10/07 12:14:00;;;;;;;6.35;5.85;;;13.90;99.90;;;;;;4989264;28;20045;-87
2021/10/07 12:16:34;;;;;;;7.50;6.80;;;13.90;99.90;;;;;;4986856;28;20089;-85
2021/10/07 12:19:04;;;;;;;9.10;7.53;;;14.10;99.90;;;;;;5001707;28;20042;-87
2021/10/07 12:21:36;;;;;;;7.97;6.65;;;14.10;99.90;;;;;;5002212;28;20054;-86
2021/10/07 12:24:11;;;;;;;7.03;6.35;;;14.10;99.90;;;;;;4986618;28;20063;-87
2021/10/07 12:26:45;;;;;;;7.07;6.40;;;14.20;99.90;;;;;;4992808;28;20794;-87
2021/10/07 12:29:17;;;;;;;7.82;7.05;;;14.20;99.90;;;;;;5004114;28;20103;-87
2021/10/07 12:31:56;;;;;;;7.55;6.53;;;14.20;99.90;;;;;;4992588;28;20046;-87
2021/10/07 12:34:28;;;;;;;7.32;6.00;;;14.20;99.90;;;;;;4982664;28;20121;-87
2021/10/07 12:36:58;;;;;;;8.10;7.40;;;14.10;99.90;;;;;;4989922;28;20050;-88
2021/10/07 12:39:33;;;;;;;6.68;6.07;;;13.90;99.90;;;;;;4984919;28;20050;-87
2021/10/07 12:42:14;;;;;;;9.32;6.78;;;13.80;99.90;;;;;;4989978;28;20573;-87
2021/10/07 12:44:55;;;;;;;6.63;5.93;;;13.70;99.90;;;;;;4980100;28;20048;-85
2021/10/07 12:47:27;;;;;;;;;;;13.70;99.90;;;;;;4997826;28;20423;-85
2021/10/07 12:50:15;;;;;;;6.50;5.85;;;13.60;99.90;;;;;;4988750;28;19928;-85
2021/10/07 12:52:58;;;;;;;6.65;6.03;;;13.50;99.90;;;;;;4988426;28;20054;-85